createdAt,value
2023-01-18T00:01:26.088Z,97159.34
2023-01-18T00:06:29.177Z,97165.84
2023-01-18T00:11:32.547Z,97162.81
2023-01-18T00:16:35.483Z,97139.84
2023-01-18T00:21:41.202Z,97125.72
2023-01-18T00:26:44.094Z,97097.88
2023-01-18T00:31:47.239Z,97094.25
2023-01-18T00:36:50.155Z,97136.59
2023-01-18T00:42:11.665Z,97181.38
2023-01-18T00:47:14.666Z,97243.88
2023-01-18T00:52:18.189Z,97247.50
2023-01-18T00:57:21.206Z,97255.56
2023-01-18T01:02:24.202Z,97259.81
2023-01-18T01:07:27.169Z,97235.84
2023-01-18T01:12:48.555Z,97248.31
2023-01-18T01:18:09.478Z,97239.25
2023-01-18T01:23:40.383Z,97216.47
2023-01-18T01:28:45.999Z,97226.97
2023-01-18T01:33:49.228Z,97210.38
2023-01-18T01:38:52.297Z,97192.34
2023-01-18T01:44:02.899Z,97236.66
2023-01-18T01:49:16.380Z,97252.16
2023-01-18T01:54:45.438Z,97255.97
2023-01-18T01:59:57.855Z,97275.94
2023-01-18T02:05:03.179Z,97277.94
2023-01-18T02:10:07.399Z,97271.66
2023-01-18T02:15:11.365Z,97284.69
2023-01-18T02:20:47.743Z,97283.06
2023-01-18T02:26:35.460Z,97303.59
2023-01-18T02:32:08.383Z,97314.28
2023-01-18T02:37:14.079Z,97314.06
2023-01-18T02:42:42.819Z,97319.66
2023-01-18T02:47:46.450Z,97325.31
2023-01-18T02:52:51.523Z,97315.81
2023-01-18T02:58:03.252Z,97312.19
2023-01-18T03:03:10.989Z,97316.25
2023-01-18T03:08:36.294Z,97338.22
2023-01-18T03:13:53.963Z,97322.69
2023-01-18T03:19:30.812Z,97328.28
2023-01-18T03:24:41.194Z,97313.56
2023-01-18T03:30:05.504Z,97308.13
2023-01-18T03:35:17.087Z,97323.69
2023-01-18T03:40:25.793Z,97308.31
2023-01-18T03:45:42.781Z,97295.41
2023-01-18T03:51:00.930Z,97281.69
2023-01-18T03:56:36.016Z,97271.38
2023-01-18T04:01:39.089Z,97288.34
2023-01-18T04:06:42.522Z,97281.91
2023-01-18T04:11:45.424Z,97282.56
2023-01-18T04:16:48.298Z,97305.59
2023-01-18T04:21:51.012Z,97327.19
2023-01-18T04:26:53.979Z,97315.69
2023-01-18T04:31:57.203Z,97294.28
2023-01-18T04:37:00.302Z,97298.34
2023-01-18T04:42:03.517Z,97315.50
2023-01-18T04:47:06.428Z,97318.94
2023-01-18T04:52:09.670Z,97335.50
2023-01-18T04:57:13.169Z,97340.53
2023-01-18T05:02:16.186Z,97324.44
2023-01-18T05:07:19.360Z,97330.31
2023-01-18T05:12:22.483Z,97346.66
2023-01-18T05:17:27.544Z,97365.00
2023-01-18T05:22:33.076Z,97397.28
2023-01-18T05:27:36.009Z,97415.81
2023-01-18T05:32:39.098Z,97415.00
2023-01-18T05:37:42.327Z,97413.19
2023-01-18T05:42:45.301Z,97406.94
2023-01-18T05:47:48.213Z,97416.44
2023-01-18T05:52:51.399Z,97399.44
2023-01-18T05:57:54.430Z,97398.47
2023-01-18T06:02:57.843Z,97373.63
2023-01-18T06:08:00.771Z,97381.03
2023-01-18T06:13:03.673Z,97377.09
2023-01-18T06:18:08.141Z,97348.34
2023-01-18T06:23:10.964Z,97365.19
2023-01-18T06:28:14.155Z,97386.22
2023-01-18T06:33:17.653Z,97390.97
2023-01-18T06:38:20.821Z,97384.78
2023-01-18T06:43:24.122Z,97375.97
2023-01-18T06:48:27.478Z,97359.06
2023-01-18T06:53:30.644Z,97342.91
2023-01-18T06:58:34.594Z,97408.19
2023-01-18T07:03:39.053Z,97426.06
2023-01-18T07:08:42.180Z,97436.25
2023-01-18T07:13:46.223Z,97466.44
2023-01-18T07:18:50.071Z,97453.41
2023-01-18T07:23:53.037Z,97462.50
2023-01-18T07:28:56.303Z,97478.09
2023-01-18T07:33:59.228Z,97516.72
2023-01-18T07:39:03.351Z,97529.00
2023-01-18T07:44:06.530Z,97528.75
2023-01-18T07:49:09.590Z,97525.16
2023-01-18T07:54:12.630Z,97537.34
2023-01-18T07:59:15.970Z,97570.06
2023-01-18T08:04:18.817Z,97582.44
2023-01-18T08:09:22.187Z,97586.16
2023-01-18T08:14:25.150Z,97598.38
2023-01-18T08:19:28.069Z,97637.75
2023-01-18T08:24:31.277Z,97637.13
2023-01-18T08:29:34.200Z,97649.06
2023-01-18T08:34:38.118Z,97646.91
2023-01-18T08:39:41.092Z,97662.13
2023-01-18T08:44:44.117Z,97661.06
2023-01-18T08:49:46.983Z,97668.50
2023-01-18T08:54:49.994Z,97664.34
2023-01-18T08:59:54.802Z,97699.72
2023-01-18T09:04:58.234Z,97714.25
2023-01-18T09:10:01.000Z,97724.84
2023-01-18T09:15:04.512Z,97744.19
2023-01-18T09:20:09.805Z,97755.88
2023-01-18T09:25:13.401Z,97774.75
2023-01-18T09:30:16.727Z,97802.59
2023-01-18T09:35:19.916Z,97836.16
2023-01-18T09:40:36.515Z,97830.53
2023-01-18T09:45:44.439Z,97841.31
2023-01-18T09:50:47.367Z,97846.06
2023-01-18T09:56:18.667Z,97866.34
2023-01-18T10:01:33.276Z,97872.69
2023-01-18T10:07:07.405Z,97870.53
2023-01-18T10:12:41.165Z,97869.47
2023-01-18T10:17:46.646Z,97875.94
2023-01-18T10:23:02.109Z,97908.47
2023-01-18T10:28:53.278Z,97927.97
2023-01-18T10:33:59.753Z,97944.56
2023-01-18T10:39:28.128Z,97934.81
2023-01-18T10:44:32.140Z,97933.22
2023-01-18T10:49:43.722Z,97938.19
2023-01-18T10:54:52.131Z,97954.13
2023-01-18T10:59:56.711Z,97965.66
2023-01-18T11:05:23.641Z,97968.78
2023-01-18T11:10:28.283Z,97979.88
2023-01-18T11:15:31.818Z,97987.44
2023-01-18T11:20:50.054Z,97994.75
2023-01-18T11:26:05.700Z,97992.72
2023-01-18T11:31:22.370Z,98020.50
2023-01-18T11:36:42.140Z,98011.34
2023-01-18T11:41:45.379Z,98019.84
2023-01-18T11:46:55.796Z,98040.84
2023-01-18T11:52:02.313Z,98056.97
2023-01-18T11:57:07.507Z,98065.94
2023-01-18T12:02:56.431Z,98078.00
2023-01-18T12:08:38.511Z,98089.44
2023-01-18T12:14:25.246Z,98103.59
2023-01-18T12:19:58.477Z,98112.94
2023-01-18T12:25:19.267Z,98128.38
2023-01-18T12:30:50.006Z,98136.25
2023-01-18T12:36:24.290Z,98157.50
2023-01-18T12:41:32.973Z,98162.75
2023-01-18T12:46:58.169Z,98160.41
2023-01-18T12:52:18.218Z,98161.22
2023-01-18T12:57:23.321Z,98180.00
2023-01-18T13:02:44.430Z,98180.00
2023-01-18T13:08:10.627Z,98192.00
2023-01-18T13:13:29.240Z,98191.63
2023-01-18T13:19:03.671Z,98213.06
2023-01-18T13:24:34.393Z,98235.75
2023-01-18T13:29:38.100Z,98232.91
2023-01-18T13:34:48.276Z,98248.53
2023-01-18T13:39:52.611Z,98268.97
2023-01-18T13:45:30.089Z,98263.06
2023-01-18T13:50:35.631Z,98282.75
2023-01-18T13:56:00.172Z,98289.09
2023-01-18T14:01:06.571Z,98272.50
2023-01-18T14:06:31.166Z,98278.59
2023-01-18T14:11:45.891Z,98283.22
2023-01-18T14:16:57.573Z,98297.19
2023-01-18T14:22:22.069Z,98313.00
2023-01-18T14:27:32.608Z,98313.19
2023-01-18T14:32:44.150Z,98337.06
2023-01-18T14:37:48.606Z,98332.31
2023-01-18T14:43:05.653Z,98337.75
2023-01-18T14:48:17.282Z,98356.72
2023-01-18T14:53:43.080Z,98358.22
2023-01-18T14:58:57.123Z,98362.91
2023-01-18T15:04:05.029Z,98368.56
2023-01-18T15:09:10.045Z,98370.94
2023-01-18T15:14:22.103Z,98351.00
2023-01-18T15:19:44.107Z,98349.28
2023-01-18T15:24:47.546Z,98351.34
2023-01-18T15:29:56.814Z,98339.41
2023-01-18T15:35:01.454Z,98340.94
2023-01-18T15:40:28.331Z,98356.56
2023-01-18T15:45:48.061Z,98349.69
2023-01-18T15:50:55.828Z,98376.97
2023-01-18T15:56:03.532Z,98394.69
2023-01-18T16:01:20.392Z,98433.88
2023-01-18T16:06:23.411Z,98423.69
2023-01-18T16:11:54.629Z,98424.88
2023-01-18T16:17:20.078Z,98429.28
2023-01-18T16:22:38.857Z,98432.72
2023-01-18T16:27:51.524Z,98443.41
2023-01-18T16:32:54.380Z,98445.03
2023-01-18T16:37:58.091Z,98440.59
2023-01-18T16:43:21.041Z,98434.38
2023-01-18T16:48:27.281Z,98435.69
2023-01-18T16:53:30.220Z,98427.47
2023-01-18T16:58:35.252Z,98444.88
2023-01-18T17:03:39.523Z,98452.09
2023-01-18T17:08:43.364Z,98458.31
2023-01-18T17:13:47.797Z,98470.47
2023-01-18T17:18:51.166Z,98463.22
2023-01-18T17:23:56.463Z,98476.38
2023-01-18T17:28:59.423Z,98482.59
2023-01-18T17:34:03.035Z,98483.41
2023-01-18T17:39:06.136Z,98524.94
2023-01-18T17:44:09.577Z,98518.38
2023-01-18T17:49:12.479Z,98530.34
2023-01-18T17:54:21.028Z,98524.47
2023-01-18T17:59:24.468Z,98550.41
2023-01-18T18:04:29.799Z,98553.03
2023-01-18T18:09:38.158Z,98551.88
2023-01-18T18:14:41.409Z,98543.16
2023-01-18T18:19:44.105Z,98543.00
2023-01-18T18:24:49.138Z,98556.66
2023-01-18T18:29:52.227Z,98554.03
2023-01-18T18:34:55.618Z,98550.56
2023-01-18T18:39:58.580Z,98538.44
2023-01-18T18:45:01.583Z,98537.78
2023-01-18T18:50:06.056Z,98552.72
2023-01-18T18:55:11.162Z,98544.66
2023-01-18T19:00:14.977Z,98544.16
2023-01-18T19:05:18.131Z,98539.72
2023-01-18T19:10:27.494Z,98545.31
2023-01-18T19:15:30.760Z,98547.44
2023-01-18T19:20:33.776Z,98558.09
2023-01-18T19:25:40.953Z,98554.84
2023-01-18T19:30:45.107Z,98548.25
2023-01-18T19:35:48.101Z,98541.72
2023-01-18T19:40:51.229Z,98545.16
2023-01-18T19:45:54.353Z,98547.78
2023-01-18T19:51:20.657Z,98553.03
2023-01-18T19:56:25.744Z,98569.44
2023-01-18T20:01:36.486Z,98553.69
2023-01-18T20:06:42.297Z,98559.44
2023-01-18T20:11:45.758Z,98558.28
2023-01-18T20:16:48.730Z,98568.63
2023-01-18T20:21:51.866Z,98564.53
2023-01-18T20:26:56.417Z,98569.59
2023-01-18T20:32:13.448Z,98569.28
2023-01-18T20:37:18.615Z,98576.19
2023-01-18T20:42:21.382Z,98565.69
2023-01-18T20:47:24.344Z,98566.66
2023-01-18T20:52:27.361Z,98564.53
2023-01-18T20:57:31.911Z,98574.84
2023-01-18T21:02:35.600Z,98579.94
2023-01-18T21:07:40.725Z,98577.31
2023-01-18T21:12:44.945Z,98580.63
2023-01-18T21:17:48.050Z,98564.34
2023-01-18T21:22:50.865Z,98548.28
2023-01-18T21:27:54.365Z,98540.06
2023-01-18T21:32:57.099Z,98531.50
2023-01-18T21:38:02.972Z,98521.66
2023-01-18T21:43:24.798Z,98520.69
2023-01-18T21:48:30.346Z,98527.59
2023-01-18T21:53:51.285Z,98539.72
2023-01-18T21:58:54.712Z,98524.47
2023-01-18T22:04:16.167Z,98536.13
2023-01-18T22:09:19.643Z,98549.25
2023-01-18T22:14:22.756Z,98555.47
2023-01-18T22:19:25.699Z,98556.78
2023-01-18T22:24:28.571Z,98582.06
2023-01-18T22:29:31.578Z,98569.59
2023-01-18T22:34:34.708Z,98556.13
2023-01-18T22:39:37.886Z,98544.00
2023-01-18T22:44:40.930Z,98548.59
2023-01-18T22:49:43.873Z,98542.34
2023-01-18T22:54:46.639Z,98543.34
2023-01-18T22:59:49.370Z,98541.72
2023-01-18T23:04:52.237Z,98544.47
2023-01-18T23:09:55.246Z,98546.09
2023-01-18T23:15:16.986Z,98537.28
2023-01-18T23:20:20.024Z,98529.41
2023-01-18T23:25:22.780Z,98521.66
2023-01-18T23:30:25.676Z,98518.06
2023-01-18T23:35:28.660Z,98503.28
2023-01-18T23:40:50.364Z,98495.41
2023-01-18T23:46:11.792Z,98479.00
2023-01-18T23:51:33.157Z,98481.97
2023-01-18T23:56:36.272Z,98469.16
